createdAt,value
2023-04-18T00:00:50.320Z,8.36
2023-04-18T00:03:21.034Z,8.39
2023-04-18T00:05:49.962Z,8.39
2023-04-18T00:08:18.654Z,8.37
2023-04-18T00:10:47.448Z,8.33
2023-04-18T00:13:18.442Z,8.31
2023-04-18T00:15:47.233Z,8.24
2023-04-18T00:18:17.283Z,8.22
2023-04-18T00:20:46.385Z,8.23
2023-04-18T00:23:15.220Z,8.26
2023-04-18T00:25:44.004Z,8.28
2023-04-18T00:28:12.693Z,8.28
2023-04-18T00:30:41.470Z,8.29
2023-04-18T00:33:10.183Z,8.28
2023-04-18T00:35:38.903Z,8.24
2023-04-18T00:38:07.623Z,8.19
2023-04-18T00:40:36.911Z,8.20
2023-04-18T00:43:07.852Z,8.25
2023-04-18T00:45:37.072Z,8.30
2023-04-18T00:48:05.964Z,8.31
2023-04-18T00:50:37.091Z,8.25
2023-04-18T00:53:06.161Z,8.21
2023-04-18T00:55:35.715Z,8.20
2023-04-18T00:58:04.546Z,8.20
2023-04-18T01:00:33.204Z,8.20
2023-04-18T01:03:02.133Z,8.21
2023-04-18T01:05:31.191Z,8.20
2023-04-18T01:08:01.349Z,8.17
2023-04-18T01:10:31.108Z,8.11
2023-04-18T01:13:11.292Z,8.12
2023-04-18T01:15:41.780Z,8.08
2023-04-18T01:18:11.792Z,8.07
2023-04-18T01:20:45.779Z,8.10
2023-04-18T01:23:16.065Z,8.17
2023-04-18T01:25:46.506Z,8.16
2023-04-18T01:28:15.495Z,8.12
2023-04-18T01:30:44.287Z,8.10
2023-04-18T01:33:13.147Z,8.08
2023-04-18T01:35:41.840Z,8.02
2023-04-18T01:38:10.497Z,8.01
2023-04-18T01:40:39.165Z,8.01
2023-04-18T01:43:07.844Z,8.10
2023-04-18T01:45:36.506Z,8.12
2023-04-18T01:48:05.373Z,8.12
2023-04-18T01:50:34.067Z,8.14
2023-04-18T01:53:02.757Z,8.13
2023-04-18T01:55:31.464Z,8.06
2023-04-18T01:58:00.155Z,8.07
2023-04-18T02:00:28.893Z,8.10
2023-04-18T02:03:00.874Z,8.18
2023-04-18T02:05:29.580Z,8.21
2023-04-18T02:07:59.287Z,8.20
2023-04-18T02:10:28.032Z,8.18
2023-04-18T02:12:56.698Z,8.08
2023-04-18T02:15:25.517Z,8.05
2023-04-18T02:17:54.452Z,8.04
2023-04-18T02:20:23.182Z,8.06
2023-04-18T02:22:52.392Z,8.08
2023-04-18T02:25:23.706Z,8.05
2023-04-18T02:27:53.551Z,8.00
2023-04-18T02:30:23.163Z,7.94
2023-04-18T02:32:58.829Z,7.87
2023-04-18T02:35:27.670Z,7.85
2023-04-18T02:37:56.387Z,7.84
2023-04-18T02:40:25.017Z,7.89
2023-04-18T02:42:53.683Z,7.88
2023-04-18T02:45:22.326Z,7.81
2023-04-18T02:47:55.212Z,7.79
2023-04-18T02:50:25.274Z,7.76
2023-04-18T02:52:54.088Z,7.78
2023-04-18T02:55:22.721Z,7.79
2023-04-18T02:57:51.366Z,7.81
2023-04-18T03:00:20.317Z,7.76
2023-04-18T03:02:49.207Z,7.71
2023-04-18T03:05:18.001Z,7.67
2023-04-18T03:07:46.693Z,7.65
2023-04-18T03:10:15.411Z,7.66
2023-04-18T03:12:44.048Z,7.72
2023-04-18T03:15:12.767Z,7.78
2023-04-18T03:17:41.573Z,7.78
2023-04-18T03:20:10.658Z,7.77
2023-04-18T03:22:39.306Z,7.75
2023-04-18T03:25:08.432Z,7.74
2023-04-18T03:27:37.157Z,7.78
2023-04-18T03:30:06.646Z,7.85
2023-04-18T03:32:36.419Z,7.91
2023-04-18T03:35:05.711Z,7.96
2023-04-18T03:37:34.377Z,7.92
2023-04-18T03:40:05.396Z,7.89
2023-04-18T03:42:34.082Z,7.80
2023-04-18T03:45:02.952Z,7.84
2023-04-18T03:47:32.151Z,7.92
2023-04-18T03:50:00.931Z,7.99
2023-04-18T03:52:29.894Z,7.99
2023-04-18T03:54:58.699Z,7.98
2023-04-18T03:57:27.485Z,7.95
2023-04-18T03:59:56.202Z,7.92
2023-04-18T04:02:24.965Z,7.96
2023-04-18T04:04:54.002Z,8.04
2023-04-18T04:07:22.664Z,8.09
2023-04-18T04:09:51.368Z,8.11
2023-04-18T04:12:20.543Z,8.07
2023-04-18T04:14:49.335Z,8.06
2023-04-18T04:17:17.987Z,8.06
2023-04-18T04:19:46.733Z,8.06
2023-04-18T04:22:15.481Z,8.10
2023-04-18T04:24:44.424Z,8.14
2023-04-18T04:27:13.645Z,8.18
2023-04-18T04:29:43.800Z,8.18
2023-04-18T04:32:12.954Z,8.18
2023-04-18T04:34:41.914Z,8.14
2023-04-18T04:37:10.576Z,8.15
2023-04-18T04:39:39.369Z,8.23
2023-04-18T04:42:09.701Z,8.27
2023-04-18T04:44:38.465Z,8.30
2023-04-18T04:47:07.493Z,8.30
2023-04-18T04:49:36.161Z,8.27
2023-04-18T04:52:04.804Z,8.28
2023-04-18T04:54:33.513Z,8.31
2023-04-18T04:57:02.226Z,8.34
2023-04-18T04:59:31.548Z,8.38
2023-04-18T05:02:00.259Z,8.39
2023-04-18T05:04:29.117Z,8.37
2023-04-18T05:06:57.952Z,8.36
2023-04-18T05:09:26.807Z,8.32
2023-04-18T05:11:55.578Z,8.33
2023-04-18T05:14:25.233Z,8.36
2023-04-18T05:16:55.703Z,8.38
2023-04-18T05:19:24.422Z,8.39
2023-04-18T05:21:53.101Z,8.37
2023-04-18T05:24:21.788Z,8.34
2023-04-18T05:26:50.580Z,8.33
2023-04-18T05:29:19.411Z,8.37
2023-04-18T05:31:48.086Z,8.44
2023-04-18T05:34:16.934Z,8.51
2023-04-18T05:36:47.732Z,8.55
2023-04-18T05:39:17.138Z,8.54
2023-04-18T05:41:45.820Z,8.50
2023-04-18T05:44:16.477Z,8.46
2023-04-18T05:46:45.820Z,8.43
2023-04-18T05:49:14.691Z,8.49
2023-04-18T05:51:43.363Z,8.57
2023-04-18T05:54:12.841Z,8.63
2023-04-18T05:56:41.723Z,8.64
2023-04-18T05:59:10.838Z,8.59
2023-04-18T06:01:39.905Z,8.61
2023-04-18T06:04:08.739Z,8.67
2023-04-18T06:06:37.706Z,8.79
2023-04-18T06:09:06.388Z,8.89
2023-04-18T06:11:35.757Z,8.98
2023-04-18T06:14:04.443Z,9.00
2023-04-18T06:16:33.232Z,9.00
2023-04-18T06:19:03.246Z,8.97
2023-04-18T06:21:32.126Z,9.05
2023-04-18T06:24:01.702Z,9.17
2023-04-18T06:26:32.108Z,9.26
2023-04-18T06:29:01.174Z,9.37
2023-04-18T06:31:29.885Z,9.37
2023-04-18T06:33:58.625Z,9.38
2023-04-18T06:36:27.501Z,9.41
2023-04-18T06:38:56.155Z,9.45
2023-04-18T06:41:24.853Z,9.49
2023-04-18T06:44:03.389Z,9.56
2023-04-18T06:46:33.229Z,9.61
2023-04-18T06:49:02.630Z,9.54
2023-04-18T06:51:31.691Z,9.46
2023-04-18T06:54:00.423Z,9.43
2023-04-18T06:56:29.788Z,9.52
2023-04-18T06:58:58.467Z,9.60
2023-04-18T07:01:27.212Z,9.65
2023-04-18T07:03:56.371Z,9.73
2023-04-18T07:06:26.193Z,9.80
2023-04-18T07:08:59.982Z,9.82
2023-04-18T07:11:29.292Z,9.97
2023-04-18T07:13:57.908Z,10.13
2023-04-18T07:16:26.780Z,10.27
2023-04-18T07:18:55.506Z,10.32
2023-04-18T07:21:24.174Z,10.32
2023-04-18T07:23:52.842Z,10.23
2023-04-18T07:26:21.582Z,10.20
2023-04-18T07:28:50.508Z,10.26
2023-04-18T07:31:19.611Z,10.40
2023-04-18T07:33:48.416Z,10.53
2023-04-18T07:36:18.125Z,10.59
2023-04-18T07:38:47.259Z,10.55
2023-04-18T07:41:15.983Z,10.53
2023-04-18T07:43:44.978Z,10.53
2023-04-18T07:46:14.035Z,10.56
2023-04-18T07:48:42.907Z,10.61
2023-04-18T07:51:11.880Z,10.63
2023-04-18T07:53:41.262Z,10.69
2023-04-18T07:56:12.517Z,10.75
2023-04-18T07:58:41.320Z,10.83
2023-04-18T08:01:13.527Z,10.94
2023-04-18T08:03:42.440Z,11.00
2023-04-18T08:06:11.250Z,11.06
2023-04-18T08:08:39.966Z,11.07
2023-04-18T08:11:08.658Z,11.13
2023-04-18T08:13:37.361Z,11.18
2023-04-18T08:16:06.345Z,11.20
2023-04-18T08:18:35.782Z,11.23
2023-04-18T08:21:04.859Z,11.31
2023-04-18T08:23:33.534Z,11.35
2023-04-18T08:26:02.168Z,11.38
2023-04-18T08:28:30.848Z,11.49
2023-04-18T08:30:59.624Z,11.62
2023-04-18T08:33:29.129Z,11.76
2023-04-18T08:35:57.893Z,11.84
2023-04-18T08:38:26.531Z,11.91
2023-04-18T08:40:55.307Z,12.01
2023-04-18T08:43:25.257Z,12.15
2023-04-18T08:46:00.350Z,12.26
2023-04-18T08:48:29.294Z,12.32
2023-04-18T08:50:59.222Z,12.40
2023-04-18T08:53:28.081Z,12.47
2023-04-18T08:55:59.512Z,12.54
2023-04-18T08:58:32.244Z,12.64
2023-04-18T09:01:01.043Z,12.63
2023-04-18T09:03:41.171Z,12.62
2023-04-18T09:06:16.282Z,12.74
2023-04-18T09:08:59.275Z,12.88
2023-04-18T09:11:30.122Z,12.91
2023-04-18T09:13:59.124Z,12.97
2023-04-18T09:16:28.412Z,13.05
2023-04-18T09:19:18.623Z,13.09
2023-04-18T09:21:58.262Z,13.18
2023-04-18T09:24:30.545Z,13.18
2023-04-18T09:27:00.132Z,13.08
2023-04-18T09:29:47.171Z,13.11
2023-04-18T09:32:25.100Z,13.08
2023-04-18T09:34:58.084Z,13.03
2023-04-18T09:37:28.178Z,12.97
2023-04-18T09:39:56.814Z,12.99
2023-04-18T09:42:28.192Z,13.03
2023-04-18T09:45:08.313Z,13.03
2023-04-18T09:47:37.498Z,13.13
2023-04-18T09:50:08.792Z,13.22
2023-04-18T09:52:40.505Z,13.39
2023-04-18T09:55:11.695Z,13.58
2023-04-18T09:57:44.281Z,13.68
2023-04-18T10:00:20.386Z,13.76
2023-04-18T10:02:53.183Z,13.94
2023-04-18T10:05:30.900Z,14.13
2023-04-18T10:07:59.715Z,14.17
2023-04-18T10:10:28.519Z,14.16
2023-04-18T10:12:59.747Z,14.12
2023-04-18T10:15:30.589Z,14.08
2023-04-18T10:18:11.318Z,14.04
2023-04-18T10:20:41.671Z,13.98
2023-04-18T10:23:37.782Z,14.01
2023-04-18T10:26:12.459Z,14.02
2023-04-18T10:28:58.504Z,14.08
2023-04-18T10:31:29.044Z,14.06
2023-04-18T10:36:31.131Z,14.05
2023-04-18T10:39:20.982Z,14.10
2023-04-18T10:41:51.730Z,14.09
2023-04-18T10:44:23.027Z,14.01
2023-04-18T10:46:52.114Z,13.94
2023-04-18T10:49:30.302Z,13.89
2023-04-18T10:52:02.786Z,13.86
2023-04-18T10:54:50.917Z,13.87
2023-04-18T10:57:20.070Z,13.89
2023-04-18T10:59:50.798Z,13.87
2023-04-18T11:02:32.270Z,13.84
2023-04-18T11:05:04.610Z,13.81
2023-04-18T11:07:34.091Z,13.80
2023-04-18T11:10:07.234Z,13.83
2023-04-18T11:12:38.301Z,13.81
2023-04-18T11:15:21.404Z,13.87
2023-04-18T11:18:04.713Z,13.88
2023-04-18T11:20:45.985Z,13.89
2023-04-18T11:23:21.467Z,13.93
2023-04-18T11:25:56.257Z,13.99
2023-04-18T11:28:25.219Z,14.11
2023-04-18T11:30:58.619Z,14.15
2023-04-18T11:33:28.816Z,14.16
2023-04-18T11:36:00.675Z,14.12
2023-04-18T11:38:30.938Z,14.08
2023-04-18T11:41:02.687Z,14.07
2023-04-18T11:43:31.419Z,14.13
2023-04-18T11:46:00.319Z,14.23
2023-04-18T11:48:36.729Z,14.25
2023-04-18T11:51:06.692Z,14.21
2023-04-18T11:53:36.791Z,14.18
2023-04-18T11:56:06.372Z,14.25
2023-04-18T11:58:36.631Z,14.24
2023-04-18T12:01:22.692Z,14.23
2023-04-18T12:04:06.812Z,14.29
2023-04-18T12:06:53.658Z,14.38
2023-04-18T12:09:25.068Z,14.46
2023-04-18T12:12:01.620Z,14.54
2023-04-18T12:14:30.651Z,14.59
2023-04-18T12:16:59.339Z,14.61
2023-04-18T12:19:30.079Z,14.68
2023-04-18T12:22:05.167Z,14.71
2023-04-18T12:24:34.490Z,14.77
2023-04-18T12:27:03.457Z,14.90
2023-04-18T12:29:32.139Z,14.96
2023-04-18T12:32:00.828Z,15.02
2023-04-18T12:34:29.611Z,15.00
2023-04-18T12:36:58.309Z,15.01
2023-04-18T12:39:27.075Z,14.96
2023-04-18T12:41:55.811Z,14.97
2023-04-18T12:44:24.830Z,14.99
2023-04-18T12:46:53.642Z,15.01
2023-04-18T12:49:22.733Z,14.99
2023-04-18T12:51:51.394Z,14.95
2023-04-18T12:54:20.731Z,14.95
2023-04-18T12:56:49.450Z,14.95
2023-04-18T12:59:18.140Z,14.94
2023-04-18T13:01:46.849Z,15.00
2023-04-18T13:04:16.074Z,15.02
2023-04-18T13:07:20.672Z,14.94
2023-04-18T13:09:49.408Z,14.94
2023-04-18T13:12:18.063Z,14.94
2023-04-18T13:14:46.717Z,15.00
2023-04-18T13:17:15.684Z,15.05
2023-04-18T13:19:44.408Z,15.09
2023-04-18T13:22:13.223Z,15.12
2023-04-18T13:24:41.963Z,15.12
2023-04-18T13:27:10.607Z,15.07
2023-04-18T13:29:41.283Z,15.12
2023-04-18T13:32:10.361Z,15.21
2023-04-18T13:34:42.564Z,15.36
2023-04-18T13:37:11.517Z,15.39
2023-04-18T13:39:40.626Z,15.37
2023-04-18T13:42:10.029Z,15.43
2023-04-18T13:44:38.865Z,15.58
2023-04-18T13:47:08.152Z,15.83
2023-04-18T13:49:37.173Z,15.99
2023-04-18T13:52:05.943Z,16.12
2023-04-18T13:54:34.670Z,16.17
2023-04-18T13:57:03.823Z,16.21
2023-04-18T13:59:32.642Z,16.32
2023-04-18T14:02:01.414Z,16.48
2023-04-18T14:04:31.942Z,16.43
2023-04-18T14:07:01.698Z,16.31
2023-04-18T14:09:30.416Z,16.14
2023-04-18T14:11:59.276Z,15.97
2023-04-18T14:14:28.086Z,15.87
2023-04-18T14:16:57.373Z,15.78
2023-04-18T14:19:27.365Z,15.75
2023-04-18T14:21:56.023Z,15.82
2023-04-18T14:24:24.688Z,15.82
2023-04-18T14:26:53.420Z,15.81
2023-04-18T14:29:22.135Z,15.76
2023-04-18T14:31:50.840Z,15.80
2023-04-18T14:34:19.630Z,15.74
2023-04-18T14:36:48.282Z,15.67
2023-04-18T14:39:16.949Z,15.58
2023-04-18T14:41:45.959Z,15.53
2023-04-18T14:44:14.766Z,15.49
2023-04-18T14:46:43.494Z,15.45
2023-04-18T14:49:12.402Z,15.39
2023-04-18T14:51:41.239Z,15.32
2023-04-18T14:54:09.989Z,15.18
2023-04-18T14:56:38.698Z,15.12
2023-04-18T14:59:07.412Z,15.02
2023-04-18T15:01:36.242Z,14.91
2023-04-18T15:04:05.963Z,14.86
2023-04-18T15:06:35.073Z,14.85
2023-04-18T15:09:03.804Z,14.82
2023-04-18T15:11:32.539Z,14.82
2023-04-18T15:14:01.253Z,14.85
2023-04-18T15:16:31.126Z,14.86
2023-04-18T15:19:00.468Z,14.86
2023-04-18T15:21:29.243Z,14.89
2023-04-18T15:23:59.101Z,14.92
2023-04-18T15:26:27.872Z,14.90
2023-04-18T15:28:56.633Z,14.91
2023-04-18T15:31:26.175Z,14.89
2023-04-18T15:33:55.209Z,14.86
2023-04-18T15:36:24.063Z,14.85
2023-04-18T15:38:52.734Z,14.82
2023-04-18T15:41:21.421Z,14.79
2023-04-18T15:43:52.157Z,14.81
2023-04-18T15:46:20.914Z,14.84
2023-04-18T15:48:49.705Z,14.89
2023-04-18T15:51:18.436Z,14.93
2023-04-18T15:53:47.162Z,14.92
2023-04-18T15:56:15.905Z,14.91
2023-04-18T15:58:44.570Z,14.90
2023-04-18T16:01:16.011Z,14.90
2023-04-18T16:03:44.829Z,14.90
2023-04-18T16:06:15.412Z,14.89
2023-04-18T16:08:44.099Z,14.89
2023-04-18T16:11:12.758Z,14.88
2023-04-18T16:13:41.412Z,14.82
2023-04-18T16:16:10.261Z,14.76
2023-04-18T16:18:39.401Z,14.70
2023-04-18T16:21:08.075Z,14.66
2023-04-18T16:23:37.265Z,14.58
2023-04-18T16:26:06.303Z,14.49
2023-04-18T16:28:37.727Z,14.41
2023-04-18T16:31:06.591Z,14.31
2023-04-18T16:33:35.411Z,14.25
2023-04-18T16:36:05.090Z,14.21
2023-04-18T16:38:33.810Z,14.17
2023-04-18T16:41:02.608Z,14.11
2023-04-18T16:43:31.343Z,14.07
2023-04-18T16:46:00.587Z,14.03
2023-04-18T16:48:29.758Z,13.99
2023-04-18T16:50:58.518Z,13.97
2023-04-18T16:53:27.246Z,13.93
2023-04-18T16:55:56.071Z,13.89
2023-04-18T16:58:24.781Z,13.87
2023-04-18T17:00:53.527Z,13.85
2023-04-18T17:03:22.335Z,13.81
2023-04-18T17:05:51.186Z,13.78
2023-04-18T17:08:19.879Z,13.77
2023-04-18T17:10:52.059Z,13.75
2023-04-18T17:13:26.716Z,13.72
2023-04-18T17:15:55.462Z,13.63
2023-04-18T17:18:24.598Z,13.57
2023-04-18T17:20:53.372Z,13.51
2023-04-18T17:23:22.908Z,13.43
2023-04-18T17:25:51.705Z,13.37
2023-04-18T17:28:21.287Z,13.30
2023-04-18T17:30:50.790Z,13.20
2023-04-18T17:33:19.482Z,13.12
2023-04-18T17:35:48.319Z,13.05
2023-04-18T17:38:16.969Z,12.97
2023-04-18T17:40:46.068Z,12.90
2023-04-18T17:43:14.705Z,12.83
2023-04-18T17:45:44.100Z,12.80
2023-04-18T17:48:12.856Z,12.80
2023-04-18T17:50:41.710Z,12.81
2023-04-18T17:53:12.397Z,12.81
2023-04-18T17:55:41.390Z,12.80
2023-04-18T17:58:10.033Z,12.73
2023-04-18T18:00:38.799Z,12.68
2023-04-18T18:03:13.539Z,12.59
2023-04-18T18:05:46.190Z,12.48
2023-04-18T18:08:15.131Z,12.35
2023-04-18T18:10:46.557Z,12.21
2023-04-18T18:13:15.826Z,12.06
2023-04-18T18:15:44.552Z,11.93
2023-04-18T18:18:13.233Z,11.90
2023-04-18T18:20:43.317Z,11.93
2023-04-18T18:23:12.084Z,11.99
2023-04-18T18:25:41.651Z,12.14
2023-04-18T18:28:10.310Z,12.25
2023-04-18T18:30:38.976Z,12.38
2023-04-18T18:33:07.774Z,12.50
2023-04-18T18:35:36.717Z,12.58
2023-04-18T18:38:05.380Z,12.63
2023-04-18T18:40:34.402Z,12.67
2023-04-18T18:43:03.178Z,12.69
2023-04-18T18:45:31.909Z,12.69
2023-04-18T18:48:00.783Z,12.66
2023-04-18T18:50:29.589Z,12.65
2023-04-18T18:52:58.312Z,12.63
2023-04-18T18:55:27.454Z,12.63
2023-04-18T18:57:56.117Z,12.63
2023-04-18T19:00:25.051Z,12.59
2023-04-18T19:02:53.871Z,12.55
2023-04-18T19:05:22.761Z,12.51
2023-04-18T19:07:51.536Z,12.49
2023-04-18T19:10:21.067Z,12.48
2023-04-18T19:12:49.729Z,12.51
2023-04-18T19:15:18.488Z,12.57
2023-04-18T19:17:47.249Z,12.60
2023-04-18T19:20:15.971Z,12.60
2023-04-18T19:22:44.622Z,12.58
2023-04-18T19:25:13.278Z,12.56
2023-04-18T19:27:42.962Z,12.52
2023-04-18T19:30:12.095Z,12.48
2023-04-18T19:32:40.886Z,12.43
2023-04-18T19:35:13.130Z,12.38
2023-04-18T19:37:42.821Z,12.33
2023-04-18T19:40:11.939Z,12.29
2023-04-18T19:42:41.060Z,12.24
2023-04-18T19:45:12.112Z,12.20
2023-04-18T19:47:43.937Z,12.16
2023-04-18T19:50:12.673Z,12.11
2023-04-18T19:52:41.407Z,12.09
2023-04-18T19:55:10.320Z,12.10
2023-04-18T19:57:41.416Z,12.12
2023-04-18T20:00:12.610Z,12.12
2023-04-18T20:02:41.610Z,12.12
2023-04-18T20:05:10.796Z,12.08
2023-04-18T20:07:39.840Z,12.04
2023-04-18T20:10:09.053Z,11.98
2023-04-18T20:12:37.825Z,11.94
2023-04-18T20:15:07.279Z,11.87
2023-04-18T20:17:36.051Z,11.81
2023-04-18T20:20:08.105Z,11.75
2023-04-18T20:22:37.944Z,11.68
2023-04-18T20:25:07.020Z,11.62
2023-04-18T20:27:35.794Z,11.58
2023-04-18T20:30:05.215Z,11.56
2023-04-18T20:32:34.612Z,11.55
2023-04-18T20:35:04.353Z,11.56
2023-04-18T20:37:36.690Z,11.54
2023-04-18T20:40:10.758Z,11.50
2023-04-18T20:42:39.566Z,11.45
2023-04-18T20:45:11.688Z,11.39
2023-04-18T20:47:42.103Z,11.32
2023-04-18T20:50:11.035Z,11.24
2023-04-18T20:52:42.803Z,11.17
2023-04-18T20:55:11.713Z,11.12
2023-04-18T20:57:40.359Z,11.02
2023-04-18T21:00:10.538Z,10.98
2023-04-18T21:02:41.080Z,10.94
2023-04-18T21:05:10.569Z,10.92
2023-04-18T21:07:39.210Z,10.90
2023-04-18T21:10:08.253Z,10.87
2023-04-18T21:12:36.919Z,10.83
2023-04-18T21:15:06.154Z,10.78
2023-04-18T21:17:34.866Z,10.74
2023-04-18T21:20:03.725Z,10.68
2023-04-18T21:22:32.398Z,10.64
2023-04-18T21:25:01.107Z,10.59
2023-04-18T21:27:30.255Z,10.56
2023-04-18T21:29:58.908Z,10.55
2023-04-18T21:32:27.689Z,10.57
2023-04-18T21:34:57.770Z,10.62
2023-04-18T21:37:26.507Z,10.63
2023-04-18T21:39:55.178Z,10.63
2023-04-18T21:42:23.872Z,10.62
2023-04-18T21:44:54.796Z,10.59
2023-04-18T21:47:23.545Z,10.55
2023-04-18T21:49:52.222Z,10.50
2023-04-18T21:52:21.086Z,10.47
2023-04-18T21:54:49.795Z,10.44
2023-04-18T21:57:18.536Z,10.38
2023-04-18T21:59:47.234Z,10.36
2023-04-18T22:02:16.115Z,10.36
2023-04-18T22:04:44.963Z,10.41
2023-04-18T22:07:15.600Z,10.46
2023-04-18T22:09:45.991Z,10.45
2023-04-18T22:12:15.487Z,10.39
2023-04-18T22:14:48.442Z,10.33
2023-04-18T22:17:17.329Z,10.28
2023-04-18T22:19:47.605Z,10.24
2023-04-18T22:22:16.560Z,10.20
2023-04-18T22:24:47.344Z,10.14
2023-04-18T22:27:16.513Z,10.09
2023-04-18T22:29:45.159Z,10.04
2023-04-18T22:32:13.801Z,9.97
2023-04-18T22:34:42.439Z,9.92
2023-04-18T22:37:11.091Z,9.88
2023-04-18T22:39:39.785Z,9.88
2023-04-18T22:42:08.480Z,9.91
2023-04-18T22:44:37.156Z,9.95
2023-04-18T22:47:06.383Z,9.94
2023-04-18T22:49:35.714Z,9.89
2023-04-18T22:52:05.003Z,9.84
2023-04-18T22:54:38.433Z,9.81
2023-04-18T22:57:07.984Z,9.72
2023-04-18T22:59:36.808Z,9.63
2023-04-18T23:02:05.692Z,9.55
2023-04-18T23:04:34.677Z,9.47
2023-04-18T23:07:03.654Z,9.41
2023-04-18T23:09:33.123Z,9.34
2023-04-18T23:12:04.718Z,9.30
2023-04-18T23:14:34.563Z,9.24
2023-04-18T23:17:03.238Z,9.19
2023-04-18T23:19:31.908Z,9.11
2023-04-18T23:22:00.592Z,9.07
2023-04-18T23:24:30.814Z,9.04
2023-04-18T23:26:59.480Z,8.99
2023-04-18T23:29:29.083Z,8.96
2023-04-18T23:31:57.828Z,8.93
2023-04-18T23:34:26.473Z,8.88
2023-04-18T23:36:55.130Z,8.86
2023-04-18T23:39:26.272Z,8.81
2023-04-18T23:41:54.957Z,8.79
2023-04-18T23:44:23.742Z,8.76
2023-04-18T23:46:52.584Z,8.72
2023-04-18T23:49:21.450Z,8.69
2023-04-18T23:51:50.289Z,8.65
2023-04-18T23:54:18.947Z,8.62
2023-04-18T23:56:47.646Z,8.59
2023-04-18T23:59:16.419Z,8.56
